Time;durP1;ratioP1;P1;durP2;ratioP2;P2;SDS_P1;SDS_P2;PMS_P1;PMS_P2;Temp;Humidity;BMP_temperature;BMP_pressure;BME280_temperature;BME280_humidity;BME280_pressure;Samples;Min_cycle;Max_cycle;Signal;HPM_P1;HPM_P2
2020/12/18 09:17:20;;;;;;;;;;;;;;;;;;4865615;27;58163;-74
2020/12/18 09:21:10;;;;;;;;;;;;;;;;;;5000457;27;11551;-73
2020/12/18 09:23:35;;;;;;;;;;;;;;;;;;5022707;28;1743;-69
2020/12/18 09:26:00;;;;;;;;;;;;;;;;;;5000543;28;11103;-59
2020/12/18 09:28:25;;;;;;;;;;;;;;;;;;5009784;28;1790;-67
2020/12/18 09:30:51;;;;;;;;;;;;;;;;;;5011500;28;1383;-65
2020/12/18 09:33:16;;;;;;;;;;;;;;;;;;5004279;28;10950;-65
2020/12/18 09:35:41;;;;;;;;;;;;;;;;;;5018198;28;1674;-61
2020/12/18 09:38:07;;;;;;;;;;;;;;;;;;5007365;28;1695;-65
2020/12/18 09:40:32;;;;;;;;;;;;;;;;;;5016974;28;1914;-62
2020/12/18 09:42:57;;;;;;;;;;;;;;;;;;5016441;28;1473;-61
2020/12/18 09:45:22;;;;;;;;;;;;;;;;;;5019423;28;1711;-66
2020/12/18 09:47:48;;;;;;;;;;;;;;;;;;5023928;28;852;-68
2020/12/18 09:50:13;;;;;;;;;;;;;;;;;;5022932;28;1520;-64
2020/12/18 09:52:38;;;;;;;;;;;;;;;;;;5024776;28;1798;-63
2020/12/18 09:55:03;;;;;;;;;;;;;;;;;;5025654;28;1403;-65
2020/12/18 09:57:28;;;;;;;;;;;;;;;;;;5023625;28;1407;-63
2020/12/18 09:59:53;;;;;;;;;;;;;;;;;;5022850;28;1887;-65
2020/12/18 10:02:18;;;;;;;;;;;;;;;;;;5024735;28;921;-62
2020/12/18 10:04:44;;;;;;;;;;;;;;;;;;5024222;28;914;-66
2020/12/18 10:07:09;;;;;;;;;;;;;;;;;;5021935;28;1416;-73
2020/12/18 10:09:34;;;;;;;;;;;;;;;;;;5012886;28;1402;-62
2020/12/18 10:11:59;;;;;;;;;;;;;;;;;;5008531;28;1801;-62
2020/12/18 12:17:50;;;;;;;;;;;;;;;;;;5055004;28;1548;-59
2020/12/18 12:20:15;;;;;;;;;;;;;;;;;;4972049;27;10667;-60
2020/12/18 12:22:41;;;;;;;;;;;;;;;;;;4994696;28;1637;-60
2020/12/18 12:25:06;;;;;;;;;;;;;;;;;;4992366;28;1833;-60
2020/12/18 12:27:31;;;;;;;;;;;;;;;;;;4986464;28;958;-61
2020/12/18 12:29:56;;;;;;;;;;;;;;;;;;4988346;28;1634;-61
2020/12/18 12:32:21;;;;;;;;;;;;;;;;;;5000603;28;910;-62
2020/12/18 12:34:46;;;;;;;;;;;;;;;;;;4989842;28;1618;-62
2020/12/18 12:37:12;;;;;;;;;;;;;;;;;;5010325;28;1910;-62
2020/12/18 12:39:37;;;;;;;;;;;;;;;;;;4986310;28;1567;-59
2020/12/18 12:42:02;;;;;;;;;;;;;;;;;;4987309;28;1469;-58
2020/12/18 12:44:27;;;;;;;;;;;;;;;;;;4998216;28;1570;-62
2020/12/18 12:46:52;;;;;;;;;;;;;;;;;;4989942;28;1574;-58
2020/12/18 12:49:18;;;;;;;;;;;;;;;;;;5004541;28;1335;-59
2020/12/18 12:51:43;;;;;;;;;;;;;;;;;;5005294;28;886;-58
2020/12/18 12:54:08;;;;;;;;;;;;;;;;;;5005991;28;1114;-59
2020/12/18 12:56:33;;;;;;;;;;;;;;;;;;4989559;28;1878;-58
2020/12/18 12:59:00;;;;;;;;;;;;;;;;;;4994659;28;1788;-61
2020/12/18 13:01:25;;;;;;;;;;;;;;;;;;4984782;28;1517;-62
2020/12/18 13:03:50;;;;;;;;;;;;;;;;;;4992431;28;1472;-61
2020/12/18 13:06:16;;;;;;;;;;;;;;;;;;4992793;28;1558;-60
2020/12/18 13:08:41;;;;;;;;;;;;;;;;;;4990328;28;1511;-63
2020/12/18 13:11:07;;;;;;;;;;;;;;;;;;5025169;28;1746;-62
2020/12/18 13:13:32;;;;;;;;;;;;;;;;;;5002096;28;1609;-60
2020/12/18 13:15:57;;;;;;;;;;;;;;;;;;5008962;28;1968;-59
2020/12/18 13:18:22;;;;;;;;;;;;;;;;;;5004756;28;1448;-62
2020/12/18 13:20:47;;;;;;;;;;;;;;;;;;5016586;28;1638;-63
2020/12/18 13:23:15;;;;;;;;;;;;;;;;;;5020345;28;1615;-62
2020/12/18 13:25:41;;;;;;;;;;;;;;;;;;5019495;28;1267;-62
2020/12/18 13:28:06;;;;;;;;;;;;;;;;;;4997145;28;1557;-62
2020/12/18 13:30:31;;;;;;;;;;;;;;;;;;4990740;28;807;-62
2020/12/18 13:32:57;;;;;;;;;;;;;;;;;;4990902;28;890;-61
2020/12/18 13:35:22;;;;;;;;;;;;;;;;;;4991848;28;1898;-61
2020/12/18 13:37:47;;;;;;;;;;;;;;;;;;4998983;28;1661;-61
2020/12/18 13:40:12;;;;;;;;;;;;;;;;;;5011212;28;987;-62
2020/12/18 13:42:38;;;;;;;;;;;;;;;;;;4975824;28;11504;-58
2020/12/18 13:45:04;;;;;;;;;;;;;;;;;;5027242;28;863;-62
2020/12/18 13:47:29;;;;;;;;;;;;;;;;;;5020569;28;1544;-62
2020/12/18 13:49:54;;;;;;;;;;;;;;;;;;4999859;28;9948;-62
2020/12/18 13:52:19;;;;;;;;;;;;;;;;;;5028006;28;1156;-61
2020/12/18 13:54:44;;;;;;;;;;;;;;;;;;5026519;28;1732;-62
2020/12/18 13:57:09;;;;;;;;;;;;;;;;;;5027925;28;1902;-61
2020/12/18 14:03:37;;;;;;;;;;;;;;;;;;5079526;28;1608;-60
2020/12/18 14:06:03;;;;;;;;;;;;;;;;;;5079998;28;1521;-60
2020/12/18 14:08:28;;;;;;;;;;;;;;;;;;5079407;28;1548;-57
2020/12/18 14:10:53;;;;;;;;;;;;;;;;;;5075296;28;1886;-59
2020/12/18 14:13:18;;;;;;;;;;;;;;;;;;5077974;28;1540;-59
2020/12/18 14:15:43;;;;;;;;;;;;;;;;;;5090493;28;2194;-61
2020/12/18 14:18:08;;;;;;;;;;;;;;;;;;5090244;28;1252;-59
2020/12/18 14:20:33;;;;;;;;;;;;;;;;;;5095038;28;1538;-61
2020/12/18 14:22:59;;;;;;;;;;;;;;;;;;5095564;28;1914;-59
2020/12/18 14:25:24;;;;;;;;;;;;;;;;;;5067884;28;1616;-60
2020/12/18 14:27:49;;;;;;;;;;;;;;;;;;5078841;28;1548;-60
2020/12/18 14:30:14;;;;;;;;;;;;;;;;;;5075107;28;2152;-61
2020/12/18 14:32:39;;;;;;;;;;;;;;;;;;5073112;28;1491;-61
2020/12/18 14:35:04;;;;;;;;;;;;;;;;;;5073472;28;1777;-59
2020/12/18 14:37:31;;;;;;;;;;;;;;;;;;5084948;28;843;-60
2020/12/18 14:39:56;;;;;;;;;;;;;;;;;;5079235;28;1572;-60
2020/12/18 14:42:22;;;;;;;;;;;;;;;;;;5064828;28;1885;-60
2020/12/18 14:44:47;;;;;;;;;;;;;;;;;;5067094;28;1465;-62
2020/12/18 14:47:12;;;;;;;;;;;;;;;;;;5079192;28;1550;-61
2020/12/18 14:49:37;;;;;;;;;;;;;;;;;;5066453;28;1449;-60
2020/12/18 14:52:02;;;;;;;;;;;;;;;;;;5064500;28;1434;-60
2020/12/18 14:54:28;;;;;;;;;;;;;;;;;;5063331;28;1409;-59
2020/12/18 14:56:53;;;;;;;;;;;;;;;;;;5064631;28;854;-59
2020/12/18 14:59:18;;;;;;;;;;;;;;;;;;5075861;28;1382;-61
2020/12/18 15:01:46;;;;;;;;;;;;;;;;;;5089452;28;1878;-60
2020/12/18 15:04:12;;;;;;;;;;;;;;;;;;5104329;28;1465;-60
2020/12/18 15:06:39;;;;;;;;;;;;;;;;;;5104242;28;1520;-61
2020/12/18 15:09:05;;;;;;;;;;;;;;;;;;5091159;28;1908;-60
2020/12/18 15:11:32;;;;;;;;;;;;;;;;;;5082355;28;1769;-58
2020/12/18 15:14:00;;;;;;;;;;;;;;;;;;5095523;28;878;-60
2020/12/18 15:16:28;;;;;;;;;;;;;;;;;;5068348;28;1452;-58
2020/12/18 15:18:55;;;;;;;;;;;;;;;;;;5071018;28;862;-57
2020/12/18 15:21:22;;;;;;;;;;;;;;;;;;5068721;28;1965;-59
2020/12/18 15:23:49;;;;;;;;;;;;;;;;;;5057184;28;1576;-61
2020/12/18 15:26:17;;;;;;;;;;;;;;;;;;5057633;28;1584;-65
2020/12/18 15:28:44;;;;;;;;;;;;;;;;;;5075701;28;1601;-66
2020/12/18 15:31:11;;;;;;;;;;;;;;;;;;5074407;28;1647;-67
2020/12/18 15:33:36;;;;;;;;;;;;;;;;;;5076166;28;1582;-69
2020/12/18 15:39:00;;;;;;;;;;;;;;;;;;5065229;28;1779;-63
2020/12/18 15:41:27;;;;;;;;;;;;;;;;;;5068863;28;1949;-68
2020/12/18 15:43:53;;;;;;;;;;;;;;;;;;5068563;28;1735;-65
2020/12/18 15:46:21;;;;;;;;;;;;;;;;;;5066754;28;1719;-58
2020/12/18 15:48:48;;;;;;;;;;;;;;;;;;5072897;28;1636;-62
2020/12/18 15:51:14;;;;;;;;;;;;;;;;;;5071182;28;1475;-64
2020/12/18 15:53:40;;;;;;;;;;;;;;;;;;5054388;28;1560;-60
2020/12/18 15:56:08;;;;;;;;;;;;;;;;;;5090895;28;850;-62
2020/12/18 15:58:36;;;;;;;;;;;;;;;;;;5088152;28;1566;-62
2020/12/18 16:01:04;;;;;;;;;;;;;;;;;;5073406;28;1657;-63
2020/12/18 16:03:32;;;;;;;;;;;;;;;;;;5086055;28;1862;-67
2020/12/18 16:06:00;;;;;;;;;;;;;;;;;;5069543;28;1556;-65
2020/12/18 16:08:28;;;;;;;;;;;;;;;;;;5084236;28;1581;-64
2020/12/18 16:10:56;;;;;;;;;;;;;;;;;;5073221;28;1561;-63
2020/12/18 16:13:24;;;;;;;;;;;;;;;;;;5060431;28;1682;-63
2020/12/18 16:15:52;;;;;;;;;;;;;;;;;;5078109;28;1504;-71
2020/12/18 16:18:19;;;;;;;;;;;;;;;;;;5082808;28;1568;-64
2020/12/18 16:20:45;;;;;;;;;;;;;;;;;;5084099;28;1687;-63
2020/12/18 16:23:11;;;;;;;;;;;;;;;;;;5088570;28;1964;-63
2020/12/18 16:25:39;;;;;;;;;;;;;;;;;;5067547;28;1630;-63
2020/12/18 16:28:06;;;;;;;;;;;;;;;;;;5086970;28;1484;-66
2020/12/18 16:30:34;;;;;;;;;;;;;;;;;;5070096;28;2063;-64
2020/12/18 16:32:59;;;;;;;;;;;;;;;;;;5052621;28;1649;-62
2020/12/18 16:35:25;;;;;;;;;;;;;;;;;;5087668;28;1225;-63
2020/12/18 16:37:51;;;;;;;;;;;;;;;;;;5081934;28;1623;-64
2020/12/18 16:40:17;;;;;;;;;;;;;;;;;;5088629;28;1155;-66
2020/12/18 16:42:42;;;;;;;;;;;;;;;;;;5088387;28;1881;-65
2020/12/18 16:45:07;;;;;;;;;;;;;;;;;;5085585;28;1444;-63
2020/12/18 16:47:32;;;;;;;;;;;;;;;;;;5084927;28;1521;-62
2020/12/18 16:49:57;;;;;;;;;;;;;;;;;;5067285;28;1692;-61
2020/12/18 16:52:22;;;;;;;;;;;;;;;;;;5069283;28;1548;-62
2020/12/18 16:54:48;;;;;;;;;;;;;;;;;;4978529;28;12481;-62
2020/12/18 16:57:13;;;;;;;;;;;;;;;;;;5031631;28;1430;-62
2020/12/18 16:59:38;;;;;;;;;;;;;;;;;;5028538;28;1548;-62
2020/12/18 17:02:04;;;;;;;;;;;;;;;;;;5035561;28;1985;-62
2020/12/18 17:04:29;;;;;;;;;;;;;;;;;;5033781;28;1418;-58
2020/12/18 17:06:55;;;;;;;;;;;;;;;;;;5038105;28;1222;-58
2020/12/18 17:09:21;;;;;;;;;;;;;;;;;;5029622;28;1157;-61
2020/12/18 17:11:46;;;;;;;;;;;;;;;;;;5032796;28;1556;-62
2020/12/18 17:14:11;;;;;;;;;;;;;;;;;;5037829;28;1375;-59
2020/12/18 17:16:36;;;;;;;;;;;;;;;;;;5034884;28;1401;-62
2020/12/18 17:19:01;;;;;;;;;;;;;;;;;;5038244;28;1196;-62
2020/12/18 17:21:27;;;;;;;;;;;;;;;;;;5035125;28;1882;-64
2020/12/18 17:23:52;;;;;;;;;;;;;;;;;;5041906;28;1574;-62
2020/12/18 17:26:17;;;;;;;;;;;;;;;;;;5032824;28;1457;-63
2020/12/18 17:28:42;;;;;;;;;;;;;;;;;;5031839;28;1610;-61
2020/12/18 17:31:07;;;;;;;;;;;;;;;;;;5043698;28;942;-62
2020/12/18 17:33:32;;;;;;;;;;;;;;;;;;4981909;28;12599;-58
2020/12/18 17:35:58;;;;;;;;;;;;;;;;;;5047449;28;1765;-58
2020/12/18 17:38:23;;;;;;;;;;;;;;;;;;5062262;28;1616;-59
2020/12/18 17:40:48;;;;;;;;;;;;;;;;;;5055526;28;1584;-59
2020/12/18 17:43:13;;;;;;;;;;;;;;;;;;5063408;28;1910;-58
2020/12/18 17:45:38;;;;;;;;;;;;;;;;;;5062442;28;1551;-60
2020/12/18 17:48:04;;;;;;;;;;;;;;;;;;5058752;28;1485;-61
2020/12/18 17:50:29;;;;;;;;;;;;;;;;;;5046302;28;1513;-62
2020/12/18 17:52:54;;;;;;;;;;;;;;;;;;5047000;28;961;-60
2020/12/18 17:55:19;;;;;;;;;;;;;;;;;;5047560;28;818;-60
2020/12/18 17:57:44;;;;;;;;;;;;;;;;;;5047454;28;1493;-63
2020/12/18 18:00:10;;;;;;;;;;;;;;;;;;5046650;28;1562;-67
2020/12/18 18:02:35;;;;;;;;;;;;;;;;;;5065580;28;1894;-60
2020/12/18 18:05:00;;;;;;;;;;;;;;;;;;5066990;28;993;-61
2020/12/18 18:07:25;;;;;;;;;;;;;;;;;;4976009;28;10615;-61
2020/12/18 18:09:50;;;;;;;;;;;;;;;;;;5029217;28;1711;-59
2020/12/18 18:12:16;;;;;;;;;;;;;;;;;;5058478;28;1205;-59
2020/12/18 18:14:41;;;;;;;;;;;;;;;;;;5049390;28;1523;-62
2020/12/18 18:17:06;;;;;;;;;;;;;;;;;;5052715;28;1513;-61
2020/12/18 18:19:31;;;;;;;;;;;;;;;;;;5053554;28;1438;-60
2020/12/18 18:21:57;;;;;;;;;;;;;;;;;;5063676;28;1902;-61
2020/12/18 18:24:22;;;;;;;;;;;;;;;;;;5065453;28;1385;-61
2020/12/18 18:26:47;;;;;;;;;;;;;;;;;;5065482;28;1516;-60
2020/12/18 18:29:12;;;;;;;;;;;;;;;;;;5067280;28;855;-61
2020/12/18 18:31:37;;;;;;;;;;;;;;;;;;5067193;28;720;-63
2020/12/18 18:34:02;;;;;;;;;;;;;;;;;;5058142;28;1503;-58
2020/12/18 18:36:28;;;;;;;;;;;;;;;;;;5046456;28;1596;-59
2020/12/18 18:38:53;;;;;;;;;;;;;;;;;;5046014;28;827;-59
2020/12/18 18:41:18;;;;;;;;;;;;;;;;;;5046734;28;1874;-59
2020/12/18 18:43:43;;;;;;;;;;;;;;;;;;5060225;28;1389;-59
2020/12/18 18:46:08;;;;;;;;;;;;;;;;;;5064185;28;1488;-59
2020/12/18 18:48:33;;;;;;;;;;;;;;;;;;5047179;28;1784;-59
2020/12/18 18:50:58;;;;;;;;;;;;;;;;;;5055318;28;1574;-59
2020/12/18 18:53:24;;;;;;;;;;;;;;;;;;5068126;28;1495;-57
2020/12/18 18:55:49;;;;;;;;;;;;;;;;;;5070108;28;1088;-58
2020/12/18 18:58:14;;;;;;;;;;;;;;;;;;5069965;28;1203;-56
2020/12/18 19:00:39;;;;;;;;;;;;;;;;;;5072450;28;1159;-57
2020/12/18 19:03:04;;;;;;;;;;;;;;;;;;5064482;28;1977;-58
2020/12/18 19:05:29;;;;;;;;;;;;;;;;;;5056971;28;1252;-57
2020/12/18 19:07:55;;;;;;;;;;;;;;;;;;5059782;28;1500;-60
2020/12/18 19:10:20;;;;;;;;;;;;;;;;;;5061140;28;1483;-58
2020/12/18 19:12:46;;;;;;;;;;;;;;;;;;5068406;28;1203;-59
2020/12/18 19:15:11;;;;;;;;;;;;;;;;;;5065842;28;1549;-60
2020/12/18 19:17:36;;;;;;;;;;;;;;;;;;5069786;28;1152;-59
2020/12/18 19:20:01;;;;;;;;;;;;;;;;;;5052188;28;1782;-61
2020/12/18 19:22:26;;;;;;;;;;;;;;;;;;5061591;28;1963;-58
2020/12/18 19:24:52;;;;;;;;;;;;;;;;;;5053962;28;1647;-59
2020/12/18 19:27:17;;;;;;;;;;;;;;;;;;5067429;28;1598;-60
2020/12/18 19:29:42;;;;;;;;;;;;;;;;;;5065855;28;1563;-61
2020/12/18 19:32:07;;;;;;;;;;;;;;;;;;5050238;28;1477;-61
2020/12/18 19:34:32;;;;;;;;;;;;;;;;;;5049416;28;914;-59
2020/12/18 19:36:58;;;;;;;;;;;;;;;;;;5050198;28;807;-61
2020/12/18 19:39:23;;;;;;;;;;;;;;;;;;5064098;28;1449;-61
2020/12/18 19:41:49;;;;;;;;;;;;;;;;;;5070430;28;1968;-59
2020/12/18 19:44:14;;;;;;;;;;;;;;;;;;5067888;28;1449;-62
2020/12/18 19:46:39;;;;;;;;;;;;;;;;;;5065424;28;1502;-61
2020/12/18 19:49:04;;;;;;;;;;;;;;;;;;5062310;28;1391;-62
2020/12/18 19:51:29;;;;;;;;;;;;;;;;;;5068132;28;1059;-62
2020/12/18 19:53:54;;;;;;;;;;;;;;;;;;5065357;28;1478;-61
2020/12/18 19:56:20;;;;;;;;;;;;;;;;;;5068732;28;1465;-59
2020/12/18 19:58:45;;;;;;;;;;;;;;;;;;5068703;28;1249;-59
2020/12/18 20:01:10;;;;;;;;;;;;;;;;;;5065370;28;1603;-57
2020/12/18 20:03:35;;;;;;;;;;;;;;;;;;5064946;28;1961;-56
2020/12/18 20:06:01;;;;;;;;;;;;;;;;;;5047622;28;1641;-59
2020/12/18 20:08:26;;;;;;;;;;;;;;;;;;5057431;28;1565;-60
2020/12/18 20:54:22;;;;;;;;;;;;;;;;;;5058828;27;11070;-64
2020/12/18 20:56:48;;;;;;;;;;;;;;;;;;5037877;28;1354;-60
2020/12/18 20:59:14;;;;;;;;;;;;;;;;;;5033834;28;847;-62
2020/12/18 21:01:43;;;;;;;;;;;;;;;;;;5031912;28;10472;-61
2020/12/18 21:04:09;;;;;;;;;;;;;;;;;;5032112;28;1497;-66
2020/12/18 21:06:35;;;;;;;;;;;;;;;;;;5033088;28;839;-60
2020/12/18 21:09:01;;;;;;;;;;;;;;;;;;5033917;28;863;-60
2020/12/18 21:13:03;;;;;;;;;;;;;;;;;;5058913;27;10322;-63
2020/12/18 21:15:34;;;;;;;;;;;;;;;;;;5057700;28;1510;-63
2020/12/18 21:18:18;;;;;;;;;;;;;;;;;;5071993;28;1072;-62
2020/12/18 21:20:47;;;;;;;;;;;;;;;;;;5074579;28;1206;-63
2020/12/18 21:23:13;;;;;;;;;;;;;;;;;;5073284;28;1198;-64
2020/12/18 21:25:38;;;;;;;;;;;;;;;;;;5069317;28;12143;-63
2020/12/18 21:28:03;;;;;;;;;;;;;;;;;;5053385;28;12367;-61
2020/12/18 21:30:29;;;;;;;;;;;;;;;;;;5036551;28;1997;-64
2020/12/18 21:32:55;;;;;;;;;;;;;;;;;;5041841;28;1617;-63
2020/12/18 21:35:21;;;;;;;;;;;;;;;;;;5045790;28;950;-63
2020/12/18 21:37:46;;;;;;;;;;;;;;;;;;5054655;28;1703;-63
2020/12/18 21:40:11;;;;;;;;;;;;;;;;;;5039824;28;1511;-63
2020/12/18 21:42:37;;;;;;;;;;;;;;;;;;5033632;28;1332;-63
2020/12/18 21:45:02;;;;;;;;;;;;;;;;;;5038325;28;1534;-63
2020/12/18 21:47:27;;;;;;;;;;;;;;;;;;5031848;28;907;-63
2020/12/18 21:49:52;;;;;;;;;;;;;;;;;;5044830;28;1072;-63
2020/12/18 21:52:17;;;;;;;;;;;;;;;;;;5038570;28;1890;-63
2020/12/18 21:54:43;;;;;;;;;;;;;;;;;;5029941;28;953;-64
2020/12/18 21:57:08;;;;;;;;;;;;;;;;;;5031425;28;843;-61
2020/12/18 21:59:33;;;;;;;;;;;;;;;;;;5024445;28;1227;-61
2020/12/18 22:01:58;;;;;;;;;;;;;;;;;;5027209;28;1651;-63
2020/12/18 22:04:23;;;;;;;;;;;;;;;;;;5027403;28;1447;-63
2020/12/18 22:06:49;;;;;;;;;;;;;;;;;;5024492;28;807;-63
2020/12/18 22:09:14;;;;;;;;;;;;;;;;;;5033631;28;1503;-63
2020/12/18 22:11:39;;;;;;;;;;;;;;;;;;5034269;28;1961;-64
2020/12/18 22:14:04;;;;;;;;;;;;;;;;;;5043777;28;1362;-63
2020/12/18 22:16:29;;;;;;;;;;;;;;;;;;5048198;28;1299;-62
2020/12/18 22:18:55;;;;;;;;;;;;;;;;;;5059387;28;1204;-65
2020/12/18 22:21:20;;;;;;;;;;;;;;;;;;5051955;28;1136;-63
2020/12/18 22:23:45;;;;;;;;;;;;;;;;;;5053015;28;1212;-64
2020/12/18 22:26:10;;;;;;;;;;;;;;;;;;5051954;28;1125;-63
2020/12/18 22:28:35;;;;;;;;;;;;;;;;;;5047809;28;1073;-64
2020/12/18 22:31:00;;;;;;;;;;;;;;;;;;5050176;28;1898;-65
2020/12/18 22:33:25;;;;;;;;;;;;;;;;;;5051952;28;1065;-64
2020/12/18 22:35:51;;;;;;;;;;;;;;;;;;5030997;28;1137;-63
2020/12/18 22:38:16;;;;;;;;;;;;;;;;;;5039748;28;1061;-65
2020/12/18 22:40:41;;;;;;;;;;;;;;;;;;5031784;28;982;-65
2020/12/18 22:43:06;;;;;;;;;;;;;;;;;;5037996;28;951;-65
2020/12/18 22:45:31;;;;;;;;;;;;;;;;;;5044582;28;1145;-63
2020/12/18 22:47:57;;;;;;;;;;;;;;;;;;5041616;28;1370;-64
2020/12/18 22:50:22;;;;;;;;;;;;;;;;;;5031464;28;1085;-63
2020/12/18 22:52:47;;;;;;;;;;;;;;;;;;5030457;28;1859;-64
2020/12/18 22:55:12;;;;;;;;;;;;;;;;;;5031521;28;1077;-64
2020/12/18 22:57:38;;;;;;;;;;;;;;;;;;5030239;28;1062;-59
2020/12/18 23:00:03;;;;;;;;;;;;;;;;;;5030005;28;1085;-61
2020/12/18 23:02:28;;;;;;;;;;;;;;;;;;5037134;28;1264;-62
2020/12/18 23:04:53;;;;;;;;;;;;;;;;;;5050431;28;1151;-63
2020/12/18 23:07:18;;;;;;;;;;;;;;;;;;5049929;28;1137;-61
2020/12/18 23:09:44;;;;;;;;;;;;;;;;;;5039660;28;1114;-67
2020/12/18 23:12:09;;;;;;;;;;;;;;;;;;5030911;28;1894;-63
2020/12/18 23:14:34;;;;;;;;;;;;;;;;;;5029913;28;1062;-62
2020/12/18 23:16:59;;;;;;;;;;;;;;;;;;5029924;28;1300;-64
2020/12/18 23:19:25;;;;;;;;;;;;;;;;;;5029864;28;1033;-65
2020/12/18 23:21:50;;;;;;;;;;;;;;;;;;5035753;28;1192;-64
2020/12/18 23:24:15;;;;;;;;;;;;;;;;;;5049658;28;1065;-63
2020/12/18 23:26:40;;;;;;;;;;;;;;;;;;5050503;28;1066;-62
2020/12/18 23:29:06;;;;;;;;;;;;;;;;;;5040376;28;1121;-63
2020/12/18 23:31:31;;;;;;;;;;;;;;;;;;5045624;28;1890;-64
2020/12/18 23:33:56;;;;;;;;;;;;;;;;;;5049849;28;1084;-63
2020/12/18 23:36:21;;;;;;;;;;;;;;;;;;5049682;28;1073;-65
2020/12/18 23:38:46;;;;;;;;;;;;;;;;;;5049975;28;1132;-62
2020/12/18 23:41:11;;;;;;;;;;;;;;;;;;5050398;28;1010;-63
2020/12/18 23:43:37;;;;;;;;;;;;;;;;;;5049258;28;1089;-63
2020/12/18 23:46:02;;;;;;;;;;;;;;;;;;5049907;28;1105;-63
2020/12/18 23:48:27;;;;;;;;;;;;;;;;;;5049956;28;1129;-64
2020/12/18 23:50:52;;;;;;;;;;;;;;;;;;5049070;28;1894;-63
2020/12/18 23:53:17;;;;;;;;;;;;;;;;;;5049193;28;1069;-64
2020/12/18 23:55:42;;;;;;;;;;;;;;;;;;5049873;28;1073;-63
2020/12/18 23:58:08;;;;;;;;;;;;;;;;;;5049446;28;1132;-64
